TimeCDT,TemperatureF,Dew PointF,Humidity,Sea Level PressureIn,VisibilityMPH,Wind Direction,Wind SpeedMPH,Gust SpeedMPH,PrecipitationIn,Events,Conditions,WindDirDegrees,DateUTC
12:53 AM,73.0,41.0,31,29.85,10.0,South,15.0,21.9,N/A,,Clear,190,2012-09-11 05:53:00
1:53 AM,71.1,41.0,34,29.84,10.0,South,12.7,21.9,N/A,,Clear,190,2012-09-11 06:53:00
2:53 AM,69.1,42.1,38,29.83,10.0,South,9.2,-,N/A,,Clear,190,2012-09-11 07:53:00
3:53 AM,66.9,42.1,40,29.83,10.0,South,6.9,-,N/A,,Partly Cloudy,190,2012-09-11 08:53:00
4:53 AM,66.9,41.0,39,29.82,10.0,South,11.5,-,N/A,,Clear,180,2012-09-11 09:53:00
5:53 AM,66.0,41.0,40,29.82,10.0,Variable,4.6,-,N/A,,Clear,0,2012-09-11 10:53:00
6:53 AM,64.0,42.1,45,29.82,10.0,Variable,3.5,-,N/A,,Clear,0,2012-09-11 11:53:00
7:53 AM,63.0,43.0,48,29.84,10.0,South,3.5,-,N/A,,Clear,180,2012-09-11 12:53:00
8:53 AM,69.1,44.1,40,29.83,10.0,Variable,4.6,-,N/A,,Clear,0,2012-09-11 13:53:00
9:53 AM,75.9,42.1,30,29.83,10.0,SSW,11.5,-,N/A,,Clear,200,2012-09-11 14:53:00
10:53 AM,82.0,42.1,24,29.82,10.0,SSW,11.5,23.0,N/A,,Clear,200,2012-09-11 15:53:00
11:53 AM,86.0,44.1,23,29.80,10.0,SSW,15.0,24.2,N/A,,Clear,200,2012-09-11 16:53:00
12:53 PM,88.0,44.1,22,29.77,10.0,South,18.4,29.9,N/A,,Clear,190,2012-09-11 17:53:00
1:53 PM,93.0,45.0,19,29.74,10.0,South,20.7,28.8,N/A,,Clear,180,2012-09-11 18:53:00
2:53 PM,96.1,45.0,17,29.72,10.0,South,24.2,31.1,N/A,,Clear,170,2012-09-11 19:53:00
3:53 PM,97.0,45.0,17,29.70,10.0,South,21.9,34.5,N/A,,Clear,190,2012-09-11 20:53:00
4:53 PM,97.0,46.0,18,29.68,10.0,South,26.5,32.2,N/A,,Clear,170,2012-09-11 21:53:00
6:53 PM,93.0,46.0,20,29.68,10.0,SSE,16.1,29.9,N/A,,Clear,160,2012-09-11 23:53:00
7:53 PM,89.1,46.9,23,29.68,10.0,SSE,15.0,23.0,N/A,,Clear,160,2012-09-12 00:53:00
8:53 PM,84.9,46.9,27,29.70,10.0,South,15.0,25.3,N/A,,Clear,170,2012-09-12 01:53:00
9:53 PM,84.0,46.9,27,29.72,10.0,South,18.4,28.8,N/A,,Clear,170,2012-09-12 02:53:00
10:53 PM,82.0,46.0,28,29.73,10.0,South,19.6,29.9,N/A,,Clear,180,2012-09-12 03:53:00
11:53 PM,79.0,46.0,31,29.73,10.0,South,17.3,25.3,N/A,,Clear,180,2012-09-12 04:53:00